Main page
METAR-TAF:

METAR-TAF

Airports :

Athens International Airport

Athens, Greece

latitude: 37-56N, longitude: 023-56E, elevation: 94 m

Current weather observation

The report was made 14 minutes ago, at 01:20 UTC
Wind 2 kt from the North/Northwest
Temperature 12°C
Humidity 76%
Pressure 1014 hPa
Visibility 10 km or more
no clouds below 1500 m and no cumulonimbus

METAR: LGAV 260120Z 33002KT CAVOK 12/08 Q1014 NOSIG

Time: 03:34 (01:34 UTC)

Forecast

The report was made 2 hours and 34 minutes ago, at 23:00 UTC
Forecast valid from 26 at 00 UTC to 26 at 24 UTC
Wind 5 kt from the Northwest
Visibility 10 km or more
Few clouds at a height of 2000 ft
Becoming
from 26 at 08 UTC to 26 at 10 UTC
Wind 5 kt from variable directions

TAF: LGAV 252300Z 2600/2624 32005KT 9999 FEW020 BECMG 2608/2610 VRB05KT

Weather observations and forecasts of more than 4000 airports (METAR and TAF reports).

The available stations are represented by yellow and red dots on the map.

Hover mouse over dot to see the name of the station.

Then click to see weather observations and forecasts.

To change the map : click on the green buttons with a black cross to zoom in, on the green button with a dash to zoom out, or on the green arrows for adjacent maps.


METAR-TAF: